Ona, West Virginia
Current Conditions -  °F | °C
As of 7:51 PM on Monday 20 Oct 2014 (Local Time) from KHTS Reporting Station
Scattered Clouds Scattered Clouds  
Wind Chill: 54°   Ceiling: Unl
Heat Index: 54°   Visibility: 10mi
Dew Point: 48°   Wind: 0mph
Humidity: 80%   Direction: NA
Pressure: 29.92"   Gusts: NA
Location:  38.42°N, 82.21°W
Report Text: KHTS 202351Z 00000KT 10SM SCT060 12/09 A2992 RMK AO2 RAB2259E12 SLP133 P0000 60000 T01220089 10150 20122 53000
Loading
Personal Weather Stations






























Interactive Weather Map
Tropical Storm Tracking
New forecast layout! Learn more

10-Day Weather Forecast

Advertisements
Track Severe Weather on mobile